sensor_id;sensor_type;location;lat;lon;timestamp;P1;durP1;ratioP1;P2;durP2;ratioP2
33858;SDS011;20156;47.486;12.074;2023-06-14T00:00:21;5.38;;;4.00;;
33858;SDS011;20156;47.486;12.074;2023-06-14T00:02:46;6.25;;;3.97;;
33858;SDS011;20156;47.486;12.074;2023-06-14T00:05:11;4.45;;;4.05;;
33858;SDS011;20156;47.486;12.074;2023-06-14T00:07:38;5.20;;;3.92;;
33858;SDS011;20156;47.486;12.074;2023-06-14T00:10:07;4.65;;;3.55;;
33858;SDS011;20156;47.486;12.074;2023-06-14T00:12:32;4.35;;;3.95;;
33858;SDS011;20156;47.486;12.074;2023-06-14T00:14:58;4.53;;;4.00;;
33858;SDS011;20156;47.486;12.074;2023-06-14T00:17:23;5.47;;;4.00;;
33858;SDS011;20156;47.486;12.074;2023-06-14T00:19:49;5.03;;;4.15;;
33858;SDS011;20156;47.486;12.074;2023-06-14T00:22:15;4.47;;;4.03;;
33858;SDS011;20156;47.486;12.074;2023-06-14T00:24:40;4.25;;;3.47;;
33858;SDS011;20156;47.486;12.074;2023-06-14T00:27:05;5.13;;;3.97;;
33858;SDS011;20156;47.486;12.074;2023-06-14T00:29:31;4.28;;;3.88;;
33858;SDS011;20156;47.486;12.074;2023-06-14T00:31:56;4.10;;;3.70;;
33858;SDS011;20156;47.486;12.074;2023-06-14T00:34:21;5.00;;;4.10;;
33858;SDS011;20156;47.486;12.074;2023-06-14T00:36:47;3.67;;;3.38;;
33858;SDS011;20156;47.486;12.074;2023-06-14T00:39:12;3.53;;;3.22;;
33858;SDS011;20156;47.486;12.074;2023-06-14T00:41:37;4.90;;;3.53;;
33858;SDS011;20156;47.486;12.074;2023-06-14T00:44:03;3.72;;;3.38;;
33858;SDS011;20156;47.486;12.074;2023-06-14T00:46:28;3.78;;;3.38;;
33858;SDS011;20156;47.486;12.074;2023-06-14T00:48:53;4.55;;;3.70;;
33858;SDS011;20156;47.486;12.074;2023-06-14T00:51:20;4.57;;;3.70;;
33858;SDS011;20156;47.486;12.074;2023-06-14T00:53:46;4.18;;;3.78;;
33858;SDS011;20156;47.486;12.074;2023-06-14T00:56:12;4.43;;;3.92;;
33858;SDS011;20156;47.486;12.074;2023-06-14T00:58:38;4.80;;;3.92;;
33858;SDS011;20156;47.486;12.074;2023-06-14T01:01:04;5.68;;;3.50;;
33858;SDS011;20156;47.486;12.074;2023-06-14T01:03:29;5.13;;;4.13;;
33858;SDS011;20156;47.486;12.074;2023-06-14T01:06:31;4.07;;;3.70;;
33858;SDS011;20156;47.486;12.074;2023-06-14T01:08:56;4.72;;;3.65;;
33858;SDS011;20156;47.486;12.074;2023-06-14T01:11:26;4.97;;;3.95;;
33858;SDS011;20156;47.486;12.074;2023-06-14T01:13:54;4.22;;;3.83;;
33858;SDS011;20156;47.486;12.074;2023-06-14T01:16:21;4.00;;;3.60;;
33858;SDS011;20156;47.486;12.074;2023-06-14T01:18:46;4.80;;;3.60;;
33858;SDS011;20156;47.486;12.074;2023-06-14T01:21:19;4.30;;;3.60;;
33858;SDS011;20156;47.486;12.074;2023-06-14T01:23:45;4.05;;;3.65;;
33858;SDS011;20156;47.486;12.074;2023-06-14T01:26:13;4.63;;;4.00;;
33858;SDS011;20156;47.486;12.074;2023-06-14T01:28:40;3.53;;;3.22;;
33858;SDS011;20156;47.486;12.074;2023-06-14T01:31:06;3.97;;;3.58;;
33858;SDS011;20156;47.486;12.074;2023-06-14T01:33:32;3.65;;;3.35;;
33858;SDS011;20156;47.486;12.074;2023-06-14T01:35:58;4.32;;;3.92;;
33858;SDS011;20156;47.486;12.074;2023-06-14T01:38:25;6.50;;;4.03;;
33858;SDS011;20156;47.486;12.074;2023-06-14T01:40:50;4.20;;;3.80;;
33858;SDS011;20156;47.486;12.074;2023-06-14T01:43:17;4.28;;;3.88;;
33858;SDS011;20156;47.486;12.074;2023-06-14T01:45:43;4.47;;;3.30;;
33858;SDS011;20156;47.486;12.074;2023-06-14T01:48:09;4.20;;;3.80;;
33858;SDS011;20156;47.486;12.074;2023-06-14T01:50:35;4.03;;;3.63;;
33858;SDS011;20156;47.486;12.074;2023-06-14T01:53:00;3.95;;;3.65;;
33858;SDS011;20156;47.486;12.074;2023-06-14T01:55:25;4.90;;;4.40;;
33858;SDS011;20156;47.486;12.074;2023-06-14T01:57:51;4.30;;;3.65;;
33858;SDS011;20156;47.486;12.074;2023-06-14T02:00:17;3.85;;;3.50;;
33858;SDS011;20156;47.486;12.074;2023-06-14T02:02:43;4.05;;;3.63;;
33858;SDS011;20156;47.486;12.074;2023-06-14T02:05:08;4.10;;;3.42;;
33858;SDS011;20156;47.486;12.074;2023-06-14T02:07:34;4.35;;;3.88;;
33858;SDS011;20156;47.486;12.074;2023-06-14T02:09:59;4.47;;;3.70;;
33858;SDS011;20156;47.486;12.074;2023-06-14T02:12:24;4.22;;;3.63;;
33858;SDS011;20156;47.486;12.074;2023-06-14T02:14:50;4.07;;;3.40;;
33858;SDS011;20156;47.486;12.074;2023-06-14T02:17:15;4.88;;;3.85;;
33858;SDS011;20156;47.486;12.074;2023-06-14T02:19:41;4.75;;;4.00;;
33858;SDS011;20156;47.486;12.074;2023-06-14T02:22:07;4.88;;;4.03;;
33858;SDS011;20156;47.486;12.074;2023-06-14T02:24:32;5.53;;;4.18;;
33858;SDS011;20156;47.486;12.074;2023-06-14T02:26:57;4.45;;;3.90;;
33858;SDS011;20156;47.486;12.074;2023-06-14T02:29:23;3.92;;;3.40;;
33858;SDS011;20156;47.486;12.074;2023-06-14T02:31:48;4.32;;;3.70;;
33858;SDS011;20156;47.486;12.074;2023-06-14T02:34:14;5.20;;;3.50;;
33858;SDS011;20156;47.486;12.074;2023-06-14T02:36:41;4.05;;;3.65;;
33858;SDS011;20156;47.486;12.074;2023-06-14T02:39:07;4.38;;;3.90;;
33858;SDS011;20156;47.486;12.074;2023-06-14T02:41:34;4.50;;;3.80;;
33858;SDS011;20156;47.486;12.074;2023-06-14T02:43:59;4.70;;;3.88;;
33858;SDS011;20156;47.486;12.074;2023-06-14T02:46:25;3.72;;;3.42;;
33858;SDS011;20156;47.486;12.074;2023-06-14T02:48:50;3.95;;;3.55;;
33858;SDS011;20156;47.486;12.074;2023-06-14T02:51:15;3.72;;;3.42;;
33858;SDS011;20156;47.486;12.074;2023-06-14T02:53:40;3.90;;;3.60;;
33858;SDS011;20156;47.486;12.074;2023-06-14T02:56:06;3.97;;;3.55;;
33858;SDS011;20156;47.486;12.074;2023-06-14T02:58:31;3.85;;;3.45;;
33858;SDS011;20156;47.486;12.074;2023-06-14T03:00:56;4.53;;;4.03;;
33858;SDS011;20156;47.486;12.074;2023-06-14T03:03:22;4.20;;;3.80;;
33858;SDS011;20156;47.486;12.074;2023-06-14T03:05:49;4.70;;;3.72;;
33858;SDS011;20156;47.486;12.074;2023-06-14T03:08:16;4.50;;;4.10;;
33858;SDS011;20156;47.486;12.074;2023-06-14T03:10:44;4.20;;;3.80;;
33858;SDS011;20156;47.486;12.074;2023-06-14T03:13:09;4.25;;;3.50;;
33858;SDS011;20156;47.486;12.074;2023-06-14T03:15:36;3.90;;;3.50;;
33858;SDS011;20156;47.486;12.074;2023-06-14T03:18:01;4.18;;;3.80;;
33858;SDS011;20156;47.486;12.074;2023-06-14T03:20:26;4.63;;;3.50;;
33858;SDS011;20156;47.486;12.074;2023-06-14T03:22:54;3.40;;;3.10;;
33858;SDS011;20156;47.486;12.074;2023-06-14T03:25:19;4.05;;;3.70;;
33858;SDS011;20156;47.486;12.074;2023-06-14T03:27:46;4.78;;;3.50;;
33858;SDS011;20156;47.486;12.074;2023-06-14T03:30:12;3.83;;;3.50;;
33858;SDS011;20156;47.486;12.074;2023-06-14T03:32:37;3.40;;;3.10;;
33858;SDS011;20156;47.486;12.074;2023-06-14T03:35:02;3.95;;;3.28;;
33858;SDS011;20156;47.486;12.074;2023-06-14T03:37:28;5.88;;;4.15;;
33858;SDS011;20156;47.486;12.074;2023-06-14T03:39:53;5.25;;;3.70;;
33858;SDS011;20156;47.486;12.074;2023-06-14T03:42:19;4.85;;;3.97;;
33858;SDS011;20156;47.486;12.074;2023-06-14T03:44:44;6.25;;;5.18;;
33858;SDS011;20156;47.486;12.074;2023-06-14T03:47:09;4.07;;;3.72;;
33858;SDS011;20156;47.486;12.074;2023-06-14T03:49:35;4.70;;;4.30;;
33858;SDS011;20156;47.486;12.074;2023-06-14T03:52:00;4.80;;;3.70;;
33858;SDS011;20156;47.486;12.074;2023-06-14T03:54:25;3.72;;;3.38;;
33858;SDS011;20156;47.486;12.074;2023-06-14T03:56:51;4.30;;;3.90;;
33858;SDS011;20156;47.486;12.074;2023-06-14T03:59:17;4.00;;;3.60;;
33858;SDS011;20156;47.486;12.074;2023-06-14T04:01:42;4.85;;;4.10;;
33858;SDS011;20156;47.486;12.074;2023-06-14T04:04:09;4.35;;;3.92;;
33858;SDS011;20156;47.486;12.074;2023-06-14T04:06:35;4.20;;;3.80;;
33858;SDS011;20156;47.486;12.074;2023-06-14T04:09:00;4.95;;;4.00;;
33858;SDS011;20156;47.486;12.074;2023-06-14T04:11:28;3.78;;;3.25;;
33858;SDS011;20156;47.486;12.074;2023-06-14T04:13:53;4.38;;;3.10;;
33858;SDS011;20156;47.486;12.074;2023-06-14T04:16:21;3.45;;;3.17;;
33858;SDS011;20156;47.486;12.074;2023-06-14T04:18:46;3.78;;;3.22;;
33858;SDS011;20156;47.486;12.074;2023-06-14T04:21:13;7.13;;;3.88;;
33858;SDS011;20156;47.486;12.074;2023-06-14T04:23:38;3.92;;;3.55;;
33858;SDS011;20156;47.486;12.074;2023-06-14T04:26:03;4.55;;;4.07;;
33858;SDS011;20156;47.486;12.074;2023-06-14T04:28:29;4.30;;;3.90;;
33858;SDS011;20156;47.486;12.074;2023-06-14T04:30:55;4.28;;;3.47;;
33858;SDS011;20156;47.486;12.074;2023-06-14T04:33:20;7.90;;;4.03;;
33858;SDS011;20156;47.486;12.074;2023-06-14T04:35:45;5.72;;;4.13;;
33858;SDS011;20156;47.486;12.074;2023-06-14T04:38:12;5.13;;;3.88;;
33858;SDS011;20156;47.486;12.074;2023-06-14T04:40:37;4.20;;;3.80;;
33858;SDS011;20156;47.486;12.074;2023-06-14T04:43:08;6.50;;;3.90;;
33858;SDS011;20156;47.486;12.074;2023-06-14T04:45:33;5.20;;;3.97;;
33858;SDS011;20156;47.486;12.074;2023-06-14T04:47:59;5.35;;;4.30;;
33858;SDS011;20156;47.486;12.074;2023-06-14T04:50:24;6.40;;;4.30;;
33858;SDS011;20156;47.486;12.074;2023-06-14T04:52:49;5.22;;;3.90;;
33858;SDS011;20156;47.486;12.074;2023-06-14T04:55:16;5.10;;;3.63;;
33858;SDS011;20156;47.486;12.074;2023-06-14T04:57:41;5.00;;;3.80;;
33858;SDS011;20156;47.486;12.074;2023-06-14T05:00:07;4.00;;;3.60;;
33858;SDS011;20156;47.486;12.074;2023-06-14T05:02:32;5.03;;;3.90;;
33858;SDS011;20156;47.486;12.074;2023-06-14T05:04:58;4.35;;;3.95;;
33858;SDS011;20156;47.486;12.074;2023-06-14T05:07:24;5.40;;;3.72;;
33858;SDS011;20156;47.486;12.074;2023-06-14T05:09:49;5.20;;;4.10;;
33858;SDS011;20156;47.486;12.074;2023-06-14T05:12:14;6.20;;;3.97;;
33858;SDS011;20156;47.486;12.074;2023-06-14T05:14:43;5.43;;;4.32;;
33858;SDS011;20156;47.486;12.074;2023-06-14T05:17:08;4.28;;;3.88;;
33858;SDS011;20156;47.486;12.074;2023-06-14T05:19:34;4.45;;;3.88;;
33858;SDS011;20156;47.486;12.074;2023-06-14T05:22:00;5.65;;;4.22;;
33858;SDS011;20156;47.486;12.074;2023-06-14T05:24:25;4.55;;;4.10;;
33858;SDS011;20156;47.486;12.074;2023-06-14T05:26:50;5.80;;;4.10;;
33858;SDS011;20156;47.486;12.074;2023-06-14T05:29:16;3.80;;;3.47;;
33858;SDS011;20156;47.486;12.074;2023-06-14T05:31:41;5.50;;;4.65;;
33858;SDS011;20156;47.486;12.074;2023-06-14T05:34:06;4.85;;;4.35;;
33858;SDS011;20156;47.486;12.074;2023-06-14T05:36:31;5.97;;;4.35;;
33858;SDS011;20156;47.486;12.074;2023-06-14T05:38:57;5.30;;;4.13;;
33858;SDS011;20156;47.486;12.074;2023-06-14T05:41:28;6.28;;;4.15;;
33858;SDS011;20156;47.486;12.074;2023-06-14T05:43:56;5.07;;;4.07;;
33858;SDS011;20156;47.486;12.074;2023-06-14T05:46:22;4.50;;;4.10;;
33858;SDS011;20156;47.486;12.074;2023-06-14T05:48:50;4.65;;;3.92;;
33858;SDS011;20156;47.486;12.074;2023-06-14T05:51:16;4.82;;;4.35;;
33858;SDS011;20156;47.486;12.074;2023-06-14T05:53:50;4.97;;;4.47;;
33858;SDS011;20156;47.486;12.074;2023-06-14T05:56:15;5.68;;;5.10;;
33858;SDS011;20156;47.486;12.074;2023-06-14T05:58:43;5.60;;;4.65;;
33858;SDS011;20156;47.486;12.074;2023-06-14T06:01:08;7.57;;;4.93;;
33858;SDS011;20156;47.486;12.074;2023-06-14T06:03:33;7.60;;;5.35;;
33858;SDS011;20156;47.486;12.074;2023-06-14T06:05:59;7.10;;;5.38;;
33858;SDS011;20156;47.486;12.074;2023-06-14T06:08:24;6.03;;;5.43;;
33858;SDS011;20156;47.486;12.074;2023-06-14T06:10:49;5.50;;;4.95;;
33858;SDS011;20156;47.486;12.074;2023-06-14T06:13:15;6.00;;;5.40;;
33858;SDS011;20156;47.486;12.074;2023-06-14T06:15:40;6.55;;;5.95;;
33858;SDS011;20156;47.486;12.074;2023-06-14T06:18:06;8.65;;;5.28;;
33858;SDS011;20156;47.486;12.074;2023-06-14T06:20:31;5.47;;;4.93;;
33858;SDS011;20156;47.486;12.074;2023-06-14T06:22:57;5.93;;;5.38;;
33858;SDS011;20156;47.486;12.074;2023-06-14T06:25:23;6.55;;;5.50;;
33858;SDS011;20156;47.486;12.074;2023-06-14T06:27:51;7.40;;;5.35;;
33858;SDS011;20156;47.486;12.074;2023-06-14T06:30:16;7.47;;;5.50;;
33858;SDS011;20156;47.486;12.074;2023-06-14T06:32:42;7.20;;;4.70;;
33858;SDS011;20156;47.486;12.074;2023-06-14T06:35:07;5.72;;;4.20;;
33858;SDS011;20156;47.486;12.074;2023-06-14T06:37:33;5.95;;;4.78;;
33858;SDS011;20156;47.486;12.074;2023-06-14T06:39:59;5.95;;;4.43;;
33858;SDS011;20156;47.486;12.074;2023-06-14T06:42:24;6.72;;;4.85;;
33858;SDS011;20156;47.486;12.074;2023-06-14T06:44:49;7.45;;;4.75;;
33858;SDS011;20156;47.486;12.074;2023-06-14T06:47:15;6.70;;;5.10;;
33858;SDS011;20156;47.486;12.074;2023-06-14T06:49:40;5.15;;;4.47;;
33858;SDS011;20156;47.486;12.074;2023-06-14T06:52:06;5.03;;;4.20;;
33858;SDS011;20156;47.486;12.074;2023-06-14T06:54:32;5.18;;;4.70;;
33858;SDS011;20156;47.486;12.074;2023-06-14T06:56:57;4.65;;;4.25;;
33858;SDS011;20156;47.486;12.074;2023-06-14T06:59:23;4.50;;;3.95;;
33858;SDS011;20156;47.486;12.074;2023-06-14T07:01:48;4.47;;;4.00;;
33858;SDS011;20156;47.486;12.074;2023-06-14T07:04:14;5.00;;;4.50;;
33858;SDS011;20156;47.486;12.074;2023-06-14T07:06:39;7.10;;;4.95;;
33858;SDS011;20156;47.486;12.074;2023-06-14T07:09:04;5.50;;;4.95;;
33858;SDS011;20156;47.486;12.074;2023-06-14T07:11:33;5.22;;;4.72;;
33858;SDS011;20156;47.486;12.074;2023-06-14T07:13:58;5.68;;;4.55;;
33858;SDS011;20156;47.486;12.074;2023-06-14T07:16:23;6.82;;;4.55;;
33858;SDS011;20156;47.486;12.074;2023-06-14T07:18:48;6.50;;;4.63;;
33858;SDS011;20156;47.486;12.074;2023-06-14T07:21:14;7.53;;;4.70;;
33858;SDS011;20156;47.486;12.074;2023-06-14T07:23:39;8.43;;;4.75;;
33858;SDS011;20156;47.486;12.074;2023-06-14T07:26:04;5.28;;;4.78;;
33858;SDS011;20156;47.486;12.074;2023-06-14T07:28:30;5.30;;;4.80;;
33858;SDS011;20156;47.486;12.074;2023-06-14T07:30:55;4.82;;;4.32;;
33858;SDS011;20156;47.486;12.074;2023-06-14T07:33:20;5.38;;;4.57;;
33858;SDS011;20156;47.486;12.074;2023-06-14T07:35:45;5.43;;;4.82;;
33858;SDS011;20156;47.486;12.074;2023-06-14T07:38:11;7.05;;;5.60;;
33858;SDS011;20156;47.486;12.074;2023-06-14T07:40:36;5.63;;;4.80;;
33858;SDS011;20156;47.486;12.074;2023-06-14T07:43:01;6.43;;;4.43;;
33858;SDS011;20156;47.486;12.074;2023-06-14T07:45:27;9.40;;;5.13;;
33858;SDS011;20156;47.486;12.074;2023-06-14T07:47:52;6.22;;;4.70;;
33858;SDS011;20156;47.486;12.074;2023-06-14T07:50:17;6.07;;;5.05;;
33858;SDS011;20156;47.486;12.074;2023-06-14T07:52:43;4.95;;;4.40;;
33858;SDS011;20156;47.486;12.074;2023-06-14T07:55:08;7.50;;;4.93;;
33858;SDS011;20156;47.486;12.074;2023-06-14T07:57:34;4.53;;;4.13;;
33858;SDS011;20156;47.486;12.074;2023-06-14T08:00:00;7.07;;;4.70;;
33858;SDS011;20156;47.486;12.074;2023-06-14T08:02:25;6.78;;;4.72;;
33858;SDS011;20156;47.486;12.074;2023-06-14T08:04:50;5.45;;;4.25;;
33858;SDS011;20156;47.486;12.074;2023-06-14T08:07:16;7.00;;;4.38;;
33858;SDS011;20156;47.486;12.074;2023-06-14T08:09:41;6.43;;;4.65;;
33858;SDS011;20156;47.486;12.074;2023-06-14T08:12:06;6.78;;;4.50;;
33858;SDS011;20156;47.486;12.074;2023-06-14T08:14:35;7.68;;;4.03;;
33858;SDS011;20156;47.486;12.074;2023-06-14T08:17:00;6.10;;;4.45;;
33858;SDS011;20156;47.486;12.074;2023-06-14T08:19:26;6.30;;;4.18;;
33858;SDS011;20156;47.486;12.074;2023-06-14T08:21:51;4.25;;;3.88;;
33858;SDS011;20156;47.486;12.074;2023-06-14T08:24:16;5.97;;;4.32;;
33858;SDS011;20156;47.486;12.074;2023-06-14T08:26:42;5.60;;;4.10;;
33858;SDS011;20156;47.486;12.074;2023-06-14T08:29:07;4.88;;;4.13;;
33858;SDS011;20156;47.486;12.074;2023-06-14T08:31:33;4.32;;;3.85;;
33858;SDS011;20156;47.486;12.074;2023-06-14T08:33:58;4.75;;;4.18;;
33858;SDS011;20156;47.486;12.074;2023-06-14T08:36:23;5.18;;;4.30;;
33858;SDS011;20156;47.486;12.074;2023-06-14T08:38:49;4.47;;;4.00;;
33858;SDS011;20156;47.486;12.074;2023-06-14T08:41:16;5.00;;;3.97;;
33858;SDS011;20156;47.486;12.074;2023-06-14T08:43:45;4.43;;;4.03;;
33858;SDS011;20156;47.486;12.074;2023-06-14T08:46:11;5.05;;;4.40;;
33858;SDS011;20156;47.486;12.074;2023-06-14T08:48:37;6.07;;;4.28;;
33858;SDS011;20156;47.486;12.074;2023-06-14T08:51:03;4.10;;;3.70;;
33858;SDS011;20156;47.486;12.074;2023-06-14T08:53:32;8.20;;;4.15;;
33858;SDS011;20156;47.486;12.074;2023-06-14T08:55:59;5.90;;;3.75;;
33858;SDS011;20156;47.486;12.074;2023-06-14T08:58:26;5.55;;;4.53;;
33858;SDS011;20156;47.486;12.074;2023-06-14T09:00:54;5.45;;;3.42;;
33858;SDS011;20156;47.486;12.074;2023-06-14T09:03:21;6.28;;;4.00;;
33858;SDS011;20156;47.486;12.074;2023-06-14T09:05:47;6.05;;;4.72;;
33858;SDS011;20156;47.486;12.074;2023-06-14T09:08:12;6.03;;;3.90;;
33858;SDS011;20156;47.486;12.074;2023-06-14T09:10:38;7.93;;;4.15;;
33858;SDS011;20156;47.486;12.074;2023-06-14T09:13:04;3.92;;;3.53;;
33858;SDS011;20156;47.486;12.074;2023-06-14T09:15:30;7.13;;;3.75;;
33858;SDS011;20156;47.486;12.074;2023-06-14T09:17:55;4.10;;;3.47;;
33858;SDS011;20156;47.486;12.074;2023-06-14T09:20:20;3.85;;;3.45;;
33858;SDS011;20156;47.486;12.074;2023-06-14T09:22:46;4.60;;;3.63;;
33858;SDS011;20156;47.486;12.074;2023-06-14T09:25:11;3.75;;;3.42;;
33858;SDS011;20156;47.486;12.074;2023-06-14T09:27:40;3.92;;;3.50;;
33858;SDS011;20156;47.486;12.074;2023-06-14T09:30:08;4.00;;;3.60;;
33858;SDS011;20156;47.486;12.074;2023-06-14T09:32:37;4.60;;;3.50;;
33858;SDS011;20156;47.486;12.074;2023-06-14T09:35:04;4.35;;;3.70;;
33858;SDS011;20156;47.486;12.074;2023-06-14T09:37:30;3.83;;;3.35;;
33858;SDS011;20156;47.486;12.074;2023-06-14T09:39:56;3.67;;;3.10;;
33858;SDS011;20156;47.486;12.074;2023-06-14T09:42:21;4.97;;;3.47;;
33858;SDS011;20156;47.486;12.074;2023-06-14T09:44:50;4.80;;;3.60;;
33858;SDS011;20156;47.486;12.074;2023-06-14T09:47:16;3.58;;;3.20;;
33858;SDS011;20156;47.486;12.074;2023-06-14T09:49:41;5.00;;;3.55;;
33858;SDS011;20156;47.486;12.074;2023-06-14T09:52:07;5.47;;;3.47;;
33858;SDS011;20156;47.486;12.074;2023-06-14T09:54:35;5.30;;;3.25;;
33858;SDS011;20156;47.486;12.074;2023-06-14T09:57:04;3.78;;;3.47;;
33858;SDS011;20156;47.486;12.074;2023-06-14T09:59:31;4.35;;;3.72;;
33858;SDS011;20156;47.486;12.074;2023-06-14T10:02:00;5.05;;;3.70;;
33858;SDS011;20156;47.486;12.074;2023-06-14T10:04:30;4.30;;;3.55;;
33858;SDS011;20156;47.486;12.074;2023-06-14T10:06:56;4.82;;;3.53;;
33858;SDS011;20156;47.486;12.074;2023-06-14T10:09:22;4.90;;;3.40;;
33858;SDS011;20156;47.486;12.074;2023-06-14T10:11:47;3.70;;;3.40;;
33858;SDS011;20156;47.486;12.074;2023-06-14T10:14:12;4.10;;;3.70;;
33858;SDS011;20156;47.486;12.074;2023-06-14T10:16:45;4.20;;;3.80;;
33858;SDS011;20156;47.486;12.074;2023-06-14T10:19:19;6.07;;;3.50;;
33858;SDS011;20156;47.486;12.074;2023-06-14T10:21:55;4.00;;;3.60;;
33858;SDS011;20156;47.486;12.074;2023-06-14T10:24:25;3.70;;;3.40;;
33858;SDS011;20156;47.486;12.074;2023-06-14T10:26:53;7.22;;;3.40;;
33858;SDS011;20156;47.486;12.074;2023-06-14T10:29:19;4.15;;;3.75;;
33858;SDS011;20156;47.486;12.074;2023-06-14T10:31:48;4.30;;;3.58;;
33858;SDS011;20156;47.486;12.074;2023-06-14T10:34:21;3.83;;;3.42;;
33858;SDS011;20156;47.486;12.074;2023-06-14T10:39:40;4.35;;;3.95;;
33858;SDS011;20156;47.486;12.074;2023-06-14T10:42:10;4.00;;;3.60;;
33858;SDS011;20156;47.486;12.074;2023-06-14T10:47:11;3.80;;;3.40;;
33858;SDS011;20156;47.486;12.074;2023-06-14T10:49:49;3.95;;;3.40;;
33858;SDS011;20156;47.486;12.074;2023-06-14T10:52:16;4.00;;;3.70;;
33858;SDS011;20156;47.486;12.074;2023-06-14T10:55:03;4.65;;;3.92;;
33858;SDS011;20156;47.486;12.074;2023-06-14T10:57:34;3.75;;;3.40;;
33858;SDS011;20156;47.486;12.074;2023-06-14T11:00:00;4.00;;;3.45;;
33858;SDS011;20156;47.486;12.074;2023-06-14T11:04:55;3.90;;;3.50;;
33858;SDS011;20156;47.486;12.074;2023-06-14T11:10:09;4.30;;;3.90;;
33858;SDS011;20156;47.486;12.074;2023-06-14T11:12:35;3.75;;;3.45;;
33858;SDS011;20156;47.486;12.074;2023-06-14T11:15:01;3.60;;;3.28;;
33858;SDS011;20156;47.486;12.074;2023-06-14T11:17:27;5.10;;;3.30;;
33858;SDS011;20156;47.486;12.074;2023-06-14T11:20:11;3.60;;;3.20;;
33858;SDS011;20156;47.486;12.074;2023-06-14T11:22:43;4.15;;;3.28;;
33858;SDS011;20156;47.486;12.074;2023-06-14T11:25:09;6.05;;;3.65;;
33858;SDS011;20156;47.486;12.074;2023-06-14T11:27:35;3.90;;;3.38;;
33858;SDS011;20156;47.486;12.074;2023-06-14T11:30:00;5.53;;;3.33;;
33858;SDS011;20156;47.486;12.074;2023-06-14T11:32:25;7.47;;;3.47;;
33858;SDS011;20156;47.486;12.074;2023-06-14T11:34:50;4.93;;;3.60;;
33858;SDS011;20156;47.486;12.074;2023-06-14T11:37:17;4.93;;;3.42;;
33858;SDS011;20156;47.486;12.074;2023-06-14T11:39:45;3.92;;;3.60;;
33858;SDS011;20156;47.486;12.074;2023-06-14T11:42:15;5.13;;;3.53;;
33858;SDS011;20156;47.486;12.074;2023-06-14T11:44:40;3.88;;;3.30;;
33858;SDS011;20156;47.486;12.074;2023-06-14T11:47:05;8.32;;;3.70;;
33858;SDS011;20156;47.486;12.074;2023-06-14T11:49:34;3.60;;;3.30;;
33858;SDS011;20156;47.486;12.074;2023-06-14T11:52:00;6.50;;;3.60;;
33858;SDS011;20156;47.486;12.074;2023-06-14T11:54:25;4.55;;;3.33;;
33858;SDS011;20156;47.486;12.074;2023-06-14T11:56:50;4.38;;;3.38;;
33858;SDS011;20156;47.486;12.074;2023-06-14T11:59:16;6.05;;;3.63;;
33858;SDS011;20156;47.486;12.074;2023-06-14T12:01:42;6.75;;;3.55;;
33858;SDS011;20156;47.486;12.074;2023-06-14T12:04:08;3.40;;;3.10;;
33858;SDS011;20156;47.486;12.074;2023-06-14T12:06:33;5.88;;;3.72;;
33858;SDS011;20156;47.486;12.074;2023-06-14T12:09:04;4.90;;;3.60;;
33858;SDS011;20156;47.486;12.074;2023-06-14T12:11:32;5.60;;;3.70;;
33858;SDS011;20156;47.486;12.074;2023-06-14T12:13:58;4.63;;;3.80;;
33858;SDS011;20156;47.486;12.074;2023-06-14T12:16:29;4.97;;;3.63;;
33858;SDS011;20156;47.486;12.074;2023-06-14T12:18:55;3.63;;;3.33;;
33858;SDS011;20156;47.486;12.074;2023-06-14T12:21:22;4.07;;;3.05;;
33858;SDS011;20156;47.486;12.074;2023-06-14T12:23:48;4.85;;;3.63;;
33858;SDS011;20156;47.486;12.074;2023-06-14T12:26:18;7.00;;;3.75;;
33858;SDS011;20156;47.486;12.074;2023-06-14T12:28:47;3.92;;;3.47;;
33858;SDS011;20156;47.486;12.074;2023-06-14T12:31:13;5.38;;;3.50;;
33858;SDS011;20156;47.486;12.074;2023-06-14T12:33:39;7.18;;;3.58;;
33858;SDS011;20156;47.486;12.074;2023-06-14T12:36:05;6.45;;;3.47;;
33858;SDS011;20156;47.486;12.074;2023-06-14T12:38:32;3.70;;;3.33;;
33858;SDS011;20156;47.486;12.074;2023-06-14T12:40:57;4.25;;;3.50;;
33858;SDS011;20156;47.486;12.074;2023-06-14T12:43:22;7.75;;;3.70;;
33858;SDS011;20156;47.486;12.074;2023-06-14T12:45:48;4.38;;;3.50;;
33858;SDS011;20156;47.486;12.074;2023-06-14T12:48:13;7.03;;;3.88;;
33858;SDS011;20156;47.486;12.074;2023-06-14T12:50:38;4.93;;;3.25;;
33858;SDS011;20156;47.486;12.074;2023-06-14T12:53:04;8.43;;;3.63;;
33858;SDS011;20156;47.486;12.074;2023-06-14T12:55:29;4.28;;;3.30;;
33858;SDS011;20156;47.486;12.074;2023-06-14T12:57:55;6.95;;;3.95;;
33858;SDS011;20156;47.486;12.074;2023-06-14T13:00:20;5.22;;;3.83;;
33858;SDS011;20156;47.486;12.074;2023-06-14T13:02:46;7.07;;;3.83;;
33858;SDS011;20156;47.486;12.074;2023-06-14T13:05:11;6.75;;;3.60;;
33858;SDS011;20156;47.486;12.074;2023-06-14T13:07:37;4.35;;;3.95;;
33858;SDS011;20156;47.486;12.074;2023-06-14T13:10:02;6.30;;;3.78;;
33858;SDS011;20156;47.486;12.074;2023-06-14T13:12:28;4.47;;;3.15;;
33858;SDS011;20156;47.486;12.074;2023-06-14T13:14:53;3.63;;;3.33;;
33858;SDS011;20156;47.486;12.074;2023-06-14T13:17:18;4.35;;;3.80;;
33858;SDS011;20156;47.486;12.074;2023-06-14T13:19:43;3.97;;;3.45;;
33858;SDS011;20156;47.486;12.074;2023-06-14T13:22:09;4.80;;;3.58;;
33858;SDS011;20156;47.486;12.074;2023-06-14T13:24:34;5.82;;;3.75;;
33858;SDS011;20156;47.486;12.074;2023-06-14T13:27:00;4.35;;;3.63;;
33858;SDS011;20156;47.486;12.074;2023-06-14T13:29:25;3.80;;;3.08;;
33858;SDS011;20156;47.486;12.074;2023-06-14T13:31:51;5.15;;;3.45;;
33858;SDS011;20156;47.486;12.074;2023-06-14T13:34:16;3.72;;;3.38;;
33858;SDS011;20156;47.486;12.074;2023-06-14T13:36:42;7.25;;;3.97;;
33858;SDS011;20156;47.486;12.074;2023-06-14T13:39:07;5.28;;;3.97;;
33858;SDS011;20156;47.486;12.074;2023-06-14T13:41:32;4.35;;;3.63;;
33858;SDS011;20156;47.486;12.074;2023-06-14T13:43:59;6.22;;;3.85;;
33858;SDS011;20156;47.486;12.074;2023-06-14T13:46:25;4.05;;;3.67;;
33858;SDS011;20156;47.486;12.074;2023-06-14T13:48:51;4.72;;;3.72;;
33858;SDS011;20156;47.486;12.074;2023-06-14T13:51:16;4.10;;;3.63;;
33858;SDS011;20156;47.486;12.074;2023-06-14T13:53:45;7.65;;;3.40;;
33858;SDS011;20156;47.486;12.074;2023-06-14T13:56:10;10.82;;;3.72;;
33858;SDS011;20156;47.486;12.074;2023-06-14T13:58:37;4.97;;;3.70;;
33858;SDS011;20156;47.486;12.074;2023-06-14T14:01:02;4.30;;;3.50;;
33858;SDS011;20156;47.486;12.074;2023-06-14T14:03:27;4.68;;;3.67;;
33858;SDS011;20156;47.486;12.074;2023-06-14T14:05:53;3.55;;;3.25;;
33858;SDS011;20156;47.486;12.074;2023-06-14T14:08:18;5.63;;;3.65;;
33858;SDS011;20156;47.486;12.074;2023-06-14T14:10:43;6.20;;;3.90;;
33858;SDS011;20156;47.486;12.074;2023-06-14T14:13:09;5.60;;;3.63;;
33858;SDS011;20156;47.486;12.074;2023-06-14T14:15:34;5.03;;;3.53;;
33858;SDS011;20156;47.486;12.074;2023-06-14T14:17:59;4.75;;;3.67;;
33858;SDS011;20156;47.486;12.074;2023-06-14T14:20:25;3.83;;;3.42;;
33858;SDS011;20156;47.486;12.074;2023-06-14T14:22:50;5.22;;;3.67;;
33858;SDS011;20156;47.486;12.074;2023-06-14T14:25:15;6.35;;;3.45;;
33858;SDS011;20156;47.486;12.074;2023-06-14T14:27:40;4.00;;;3.60;;
33858;SDS011;20156;47.486;12.074;2023-06-14T14:30:06;4.75;;;3.67;;
33858;SDS011;20156;47.486;12.074;2023-06-14T14:32:31;4.72;;;3.50;;
33858;SDS011;20156;47.486;12.074;2023-06-14T14:34:56;4.22;;;3.50;;
33858;SDS011;20156;47.486;12.074;2023-06-14T14:37:22;4.38;;;3.40;;